Time;durP1;ratioP1;P1;durP2;ratioP2;P2;SDS_P1;SDS_P2;PMS_P1;PMS_P2;Temp;Humidity;BMP_temperature;BMP_pressure;BME280_temperature;BME280_humidity;BME280_pressure;Samples;Min_cycle;Max_cycle;Signal;HPM_P1;HPM_P2
2022/01/09 00:00:10;;;;;;;13.93;1.80;;;5.90;99.90;;;;;;5092327;28;20229;-76
2022/01/09 00:02:36;;;;;;;14.50;1.90;;;5.90;99.90;;;;;;5092369;28;20263;-75
2022/01/09 00:05:02;;;;;;;15.17;1.93;;;5.90;99.90;;;;;;5091891;28;20722;-76
2022/01/09 00:07:28;;;;;;;18.93;2.20;;;5.90;99.90;;;;;;5100885;28;20180;-75
2022/01/09 00:09:56;;;;;;;13.67;2.10;;;5.90;99.90;;;;;;5092016;28;20182;-75
2022/01/09 00:12:22;;;;;;;15.13;1.80;;;5.80;99.90;;;;;;5092053;28;20217;-75
2022/01/09 00:14:47;;;;;;;15.17;2.07;;;5.90;99.90;;;;;;5092128;28;20168;-76
2022/01/09 00:17:13;;;;;;;22.87;2.30;;;6.00;99.90;;;;;;5093911;28;20637;-76
2022/01/09 00:19:39;;;;;;;19.87;2.60;;;6.00;99.90;;;;;;5092096;28;20172;-76
2022/01/09 00:22:05;;;;;;;16.43;2.53;;;6.10;99.90;;;;;;5091890;28;20176;-76
2022/01/09 00:24:30;;;;;;;24.80;2.47;;;6.10;99.90;;;;;;5091937;28;20232;-76
2022/01/09 00:26:56;;;;;;;19.03;2.33;;;6.10;99.90;;;;;;5091763;28;20172;-84
2022/01/09 00:29:22;;;;;;;18.80;2.93;;;6.20;99.90;;;;;;5092096;28;20313;-84
2022/01/09 00:31:48;;;;;;;18.70;2.27;;;6.20;99.90;;;;;;5106068;28;20235;-82
2022/01/09 00:34:13;;;;;;;11.93;1.80;;;6.20;99.90;;;;;;5109293;28;20179;-78
2022/01/09 00:36:39;;;;;;;15.00;2.30;;;6.20;99.90;;;;;;5090301;28;20545;-78
2022/01/09 00:39:05;;;;;;;19.77;2.67;;;6.20;99.90;;;;;;5091449;28;20226;-78
2022/01/09 00:41:32;;;;;;;14.70;2.83;;;6.10;99.90;;;;;;5091639;28;20234;-79
2022/01/09 00:43:58;;;;;;;16.63;2.37;;;6.00;99.90;;;;;;5091576;28;20591;-80
2022/01/09 00:46:23;;;;;;;14.23;2.10;;;6.00;99.90;;;;;;5090207;28;20171;-79
2022/01/09 00:48:49;;;;;;;19.33;2.40;;;6.00;99.90;;;;;;5091289;28;20176;-79
2022/01/09 00:51:15;;;;;;;13.73;2.07;;;6.00;99.90;;;;;;5091488;28;20275;-80
2022/01/09 00:53:40;;;;;;;13.50;2.70;;;5.90;99.90;;;;;;5091555;28;20255;-79
2022/01/09 00:56:06;;;;;;;11.30;1.60;;;5.90;99.90;;;;;;5091536;28;20652;-79
2022/01/09 00:58:32;;;;;;;10.23;1.67;;;6.00;99.90;;;;;;5091689;28;20168;-79
2022/01/09 01:00:59;;;;;;;16.30;2.40;;;6.00;99.90;;;;;;5091185;28;20570;-79
2022/01/09 01:03:25;;;;;;;17.70;2.17;;;6.00;99.90;;;;;;5091389;28;20191;-78
2022/01/09 01:05:51;;;;;;;11.53;1.87;;;5.90;99.90;;;;;;5091408;28;20172;-77
2022/01/09 01:08:17;;;;;;;10.00;2.20;;;6.00;99.90;;;;;;5090484;28;20195;-78
2022/01/09 01:10:43;;;;;;;19.43;3.17;;;5.90;99.90;;;;;;5091153;28;20183;-77
2022/01/09 01:13:08;;;;;;;16.53;2.63;;;5.80;99.90;;;;;;5091194;28;20167;-77
2022/01/09 01:15:34;;;;;;;21.17;2.80;;;5.90;99.90;;;;;;5090225;28;20172;-79
2022/01/09 01:18:00;;;;;;;15.70;2.17;;;5.80;99.90;;;;;;5103024;28;20557;-80
2022/01/09 01:20:27;;;;;;;17.10;3.00;;;5.80;99.90;;;;;;5111588;28;20207;-80
2022/01/09 01:22:53;;;;;;;15.20;2.23;;;5.90;99.90;;;;;;5111574;28;20175;-81
2022/01/09 01:25:20;;;;;;;11.63;2.53;;;5.80;99.90;;;;;;5100168;28;20515;-79
2022/01/09 01:27:46;;;;;;;13.93;2.13;;;5.90;99.90;;;;;;5091105;28;20175;-79
2022/01/09 01:30:12;;;;;;;17.20;2.30;;;5.80;99.90;;;;;;5091302;28;20195;-80
2022/01/09 01:32:41;;;;;;;14.93;2.60;;;5.70;99.90;;;;;;5108026;28;20194;-79
2022/01/09 01:35:08;;;;;;;22.47;2.13;;;5.70;99.90;;;;;;5111420;28;20262;-79
2022/01/09 01:37:37;;;;;;;15.07;2.60;;;5.60;99.90;;;;;;5111302;28;20167;-78
2022/01/09 01:40:08;;;;;;;15.13;2.17;;;5.50;99.90;;;;;;5108392;28;20223;-78
2022/01/09 01:42:34;;;;;;;19.73;2.80;;;5.70;99.90;;;;;;5094559;28;20639;-79
2022/01/09 01:45:00;;;;;;;13.17;2.17;;;5.60;99.90;;;;;;5090777;28;20175;-79
2022/01/09 01:47:25;;;;;;;16.50;2.37;;;5.60;99.90;;;;;;5110534;28;20210;-79
2022/01/09 01:49:51;;;;;;;18.10;2.43;;;5.60;99.90;;;;;;5111093;28;20167;-79
2022/01/09 01:52:27;;;;;;;18.77;2.93;;;5.60;99.90;;;;;;5096701;28;20565;-75
2022/01/09 01:54:53;;;;;;;20.67;2.27;;;5.60;99.90;;;;;;5090797;28;20364;-72
2022/01/09 01:57:19;;;;;;;20.93;2.50;;;5.70;99.90;;;;;;5090512;28;20160;-72
2022/01/09 01:59:44;;;;;;;24.53;2.50;;;5.70;99.90;;;;;;5096637;28;20242;-72
2022/01/09 02:02:10;;;;;;;16.10;2.40;;;5.70;99.90;;;;;;5110736;28;20283;-72
2022/01/09 02:04:37;;;;;;;15.33;1.90;;;5.70;99.90;;;;;;5111100;28;20197;-73
2022/01/09 02:07:03;;;;;;;17.97;2.23;;;5.80;99.90;;;;;;5110627;28;20602;-72
2022/01/09 02:09:29;;;;;;;14.20;2.27;;;5.70;99.90;;;;;;5106594;28;20172;-73
2022/01/09 02:11:55;;;;;;;23.60;3.20;;;5.70;99.90;;;;;;5090484;28;20656;-72
2022/01/09 02:14:21;;;;;;;13.83;2.57;;;6.60;99.90;;;;;;5090525;28;20172;-73
2022/01/09 02:16:49;;;;;;;20.73;2.80;;;5.70;99.90;;;;;;5090164;28;20171;-73
2022/01/09 02:19:16;;;;;;;12.90;2.40;;;5.70;99.90;;;;;;5090299;28;20168;-72
2022/01/09 02:21:45;;;;;;;19.80;2.30;;;5.70;99.90;;;;;;5090270;28;20303;-72
2022/01/09 02:24:14;;;;;;;17.17;2.47;;;5.70;99.90;;;;;;5096707;28;20183;-72
2022/01/09 02:26:41;;;;;;;19.87;2.60;;;5.70;99.90;;;;;;5111904;28;20171;-72
2022/01/09 02:29:07;;;;;;;14.67;2.23;;;5.70;99.90;;;;;;5114353;28;20159;-74
2022/01/09 02:31:35;;;;;;;12.57;1.87;;;5.80;99.90;;;;;;5115245;28;20208;-82
2022/01/09 02:34:01;;;;;;;23.60;2.33;;;5.80;99.90;;;;;;5114042;28;20164;-84
2022/01/09 02:36:27;;;;;;;14.03;2.07;;;5.80;99.90;;;;;;5099234;28;20187;-75
2022/01/09 02:38:53;;;;;;;18.90;2.10;;;5.80;99.90;;;;;;5094226;28;20589;-74
2022/01/09 02:41:19;;;;;;;17.50;2.13;;;5.80;99.90;;;;;;5093761;28;20214;-74
2022/01/09 02:43:44;;;;;;;15.70;2.10;;;5.70;99.90;;;;;;5094862;28;20338;-75
2022/01/09 02:46:29;;;;;;;15.67;1.73;;;5.70;99.90;;;;;;5093820;28;20183;-74
2022/01/09 02:48:56;;;;;;;20.67;2.23;;;5.70;99.90;;;;;;5093581;28;20172;-75
2022/01/09 02:51:22;;;;;;;17.47;2.40;;;5.70;99.90;;;;;;5093733;28;20174;-75
2022/01/09 02:53:49;;;;;;;22.97;2.30;;;5.60;99.90;;;;;;5093395;28;20586;-74
2022/01/09 02:56:16;;;;;;;14.93;2.10;;;5.70;99.90;;;;;;5093642;28;20176;-76
2022/01/09 02:58:42;;;;;;;16.43;2.13;;;5.60;99.90;;;;;;5093596;28;20172;-77
2022/01/09 03:01:10;;;;;;;15.47;2.80;;;5.60;99.90;;;;;;5093330;28;20641;-69
2022/01/09 03:03:37;;;;;;;18.83;2.27;;;5.50;99.90;;;;;;5093318;28;20229;-80
2022/01/09 03:06:04;;;;;;;24.53;3.03;;;5.50;99.90;;;;;;5093324;28;20622;-80
2022/01/09 03:08:30;;;;;;;16.90;2.17;;;5.40;99.90;;;;;;5093404;28;20172;-82
2022/01/09 03:10:56;;;;;;;18.10;2.67;;;5.50;99.90;;;;;;5108462;28;20198;-80
2022/01/09 03:13:22;;;;;;;23.67;2.90;;;5.50;99.90;;;;;;5113755;28;20517;-81
2022/01/09 03:15:48;;;;;;;13.97;2.60;;;5.50;99.90;;;;;;5113767;28;20164;-80
2022/01/09 03:18:14;;;;;;;20.70;3.10;;;5.50;99.90;;;;;;5096385;28;20176;-80
2022/01/09 03:20:41;;;;;;;19.00;2.77;;;5.50;99.90;;;;;;5093294;28;20218;-81
2022/01/09 03:23:07;;;;;;;22.03;2.83;;;5.40;99.90;;;;;;5101022;28;20258;-80
2022/01/09 03:25:33;;;;;;;17.47;2.77;;;5.50;99.90;;;;;;5113464;28;20168;-81
2022/01/09 03:27:59;;;;;;;19.70;2.70;;;5.40;99.90;;;;;;5113485;28;20179;-81
2022/01/09 03:30:26;;;;;;;19.30;2.77;;;5.50;99.90;;;;;;5113372;28;20167;-80
2022/01/09 03:32:53;;;;;;;26.90;3.00;;;5.40;99.90;;;;;;5105610;28;20167;-81
2022/01/09 03:35:22;;;;;;;14.23;2.50;;;5.50;99.90;;;;;;5105916;28;20641;-81
2022/01/09 03:37:49;;;;;;;18.37;2.40;;;5.50;99.90;;;;;;5112603;28;20767;-81
2022/01/09 03:40:21;;;;;;;18.90;2.90;;;5.50;99.90;;;;;;5113060;28;20785;-80
2022/01/09 03:42:53;;;;;;;18.97;2.70;;;5.50;99.90;;;;;;5106138;27;20225;-80
2022/01/09 03:45:21;;;;;;;15.67;2.20;;;5.50;99.90;;;;;;5092868;28;20168;-79
2022/01/09 03:47:48;;;;;;;17.13;2.73;;;5.50;99.90;;;;;;5092561;28;20677;-80
2022/01/09 03:50:14;;;;;;;19.80;2.50;;;5.50;99.90;;;;;;5092560;28;20183;-79
2022/01/09 03:52:41;;;;;;;23.97;3.37;;;5.50;99.90;;;;;;5092301;28;20199;-78
2022/01/09 03:55:09;;;;;;;23.67;3.40;;;5.50;99.90;;;;;;5092370;28;20639;-80
2022/01/09 03:57:35;;;;;;;28.50;2.93;;;5.40;99.90;;;;;;5092477;28;20233;-80
2022/01/09 04:00:02;;;;;;;17.57;2.97;;;5.50;99.90;;;;;;5092140;28;20164;-81
2022/01/09 04:02:28;;;;;;;18.30;2.60;;;5.50;99.90;;;;;;5092595;28;20225;-83
2022/01/09 04:04:53;;;;;;;18.93;3.00;;;5.40;99.90;;;;;;5092378;28;20171;-83
2022/01/09 04:07:19;;;;;;;15.97;2.50;;;5.50;99.90;;;;;;5092444;28;20274;-82
2022/01/09 04:09:47;;;;;;;23.00;2.70;;;5.50;99.90;;;;;;5092436;28;20239;-82
2022/01/09 04:12:17;;;;;;;22.57;2.77;;;5.50;99.90;;;;;;5092124;28;20172;-81
2022/01/09 04:14:44;;;;;;;16.90;2.53;;;5.50;99.90;;;;;;5092256;28;20167;-82
2022/01/09 04:17:37;;;;;;;27.50;3.20;;;5.60;99.90;;;;;;5092226;28;20167;-82
2022/01/09 04:20:05;;;;;;;22.17;3.13;;;5.50;99.90;;;;;;5092302;28;20168;-82
2022/01/09 04:22:31;;;;;;;13.83;2.57;;;5.50;99.90;;;;;;5091868;28;20183;-75
2022/01/09 04:24:57;;;;;;;24.23;3.43;;;5.50;99.90;;;;;;5091848;28;20622;-75
2022/01/09 04:27:23;;;;;;;25.13;3.67;;;5.60;99.90;;;;;;5098646;28;20190;-75
2022/01/09 04:29:48;;;;;;;16.70;2.90;;;5.50;99.90;;;;;;5112318;28;20177;-75
2022/01/09 04:32:14;;;;;;;15.07;3.17;;;5.60;99.90;;;;;;5110899;28;20168;-75
2022/01/09 04:34:40;;;;;;;18.67;2.90;;;5.50;99.90;;;;;;5101343;28;20543;-75
2022/01/09 04:37:06;;;;;;;23.63;2.70;;;5.60;99.90;;;;;;5091618;28;20203;-78
2022/01/09 04:39:32;;;;;;;20.33;3.30;;;5.60;99.90;;;;;;5091560;28;20685;-78
2022/01/09 04:41:58;;;;;;;14.03;1.93;;;5.70;99.90;;;;;;5090081;28;20294;-79
2022/01/09 04:44:24;;;;;;;15.00;2.83;;;5.70;99.90;;;;;;5091601;28;20630;-79
2022/01/09 04:47:02;;;;;;;13.77;2.40;;;5.70;99.90;;;;;;5091650;28;20180;-82
2022/01/09 04:49:35;;;;;;;14.10;2.40;;;5.70;99.90;;;;;;5091698;28;20163;-81
2022/01/09 04:52:03;;;;;;;24.97;2.80;;;5.70;99.90;;;;;;5091381;28;20183;-81
2022/01/09 04:54:28;;;;;;;16.20;2.17;;;5.70;99.90;;;;;;5091893;28;20250;-80
2022/01/09 04:56:54;;;;;;;11.77;1.90;;;5.70;99.90;;;;;;5091427;28;20552;-80
2022/01/09 04:59:20;;;;;;;13.33;1.73;;;5.70;99.90;;;;;;5091475;28;20634;-82
2022/01/09 05:01:46;;;;;;;15.93;2.37;;;5.70;99.90;;;;;;5091483;28;20226;-81
2022/01/09 05:04:11;;;;;;;11.20;1.63;;;5.70;99.90;;;;;;5091196;28;20504;-80
2022/01/09 05:06:37;;;;;;;10.27;1.93;;;5.70;99.90;;;;;;5091489;28;20555;-81
2022/01/09 05:09:03;;;;;;;20.57;2.13;;;5.60;99.90;;;;;;5090024;28;20540;-82
2022/01/09 05:11:29;;;;;;;19.17;2.80;;;5.70;99.90;;;;;;5091447;28;20187;-81
2022/01/09 05:13:55;;;;;;;17.03;2.67;;;5.70;99.90;;;;;;5091256;28;20257;-81
2022/01/09 05:16:20;;;;;;;11.63;2.03;;;5.60;99.90;;;;;;5091362;28;20248;-80
2022/01/09 05:18:55;;;;;;;15.10;2.97;;;5.50;99.90;;;;;;5091114;28;20175;-79
2022/01/09 05:21:21;;;;;;;16.60;2.70;;;5.50;99.90;;;;;;5096424;28;20254;-79
2022/01/09 05:23:47;;;;;;;19.30;3.07;;;5.50;99.90;;;;;;5112305;28;20171;-79
2022/01/09 05:26:13;;;;;;;17.73;2.63;;;5.50;99.90;;;;;;5112463;28;20162;-81
2022/01/09 05:28:39;;;;;;;13.23;2.20;;;5.50;99.90;;;;;;5101108;28;20179;-80
2022/01/09 05:31:04;;;;;;;23.03;2.80;;;5.50;99.90;;;;;;5091804;28;20630;-80
2022/01/09 05:33:30;;;;;;;13.57;2.20;;;5.70;99.90;;;;;;5091482;28;20171;-80
2022/01/09 05:35:56;;;;;;;12.70;2.03;;;5.60;99.90;;;;;;5091096;28;20192;-80
2022/01/09 05:38:22;;;;;;;15.83;2.60;;;5.70;99.90;;;;;;5090886;28;20220;-80
2022/01/09 05:40:48;;;;;;;15.43;2.50;;;5.60;99.90;;;;;;5091342;28;20204;-80
2022/01/09 05:43:14;;;;;;;15.53;2.27;;;5.60;99.90;;;;;;5089758;28;20191;-80
2022/01/09 05:45:40;;;;;;;19.87;2.63;;;5.60;99.90;;;;;;5090762;28;20164;-78
2022/01/09 05:48:06;;;;;;;14.47;2.57;;;5.70;99.90;;;;;;5091192;28;20171;-79
2022/01/09 05:50:33;;;;;;;14.20;2.10;;;5.70;99.90;;;;;;5091041;28;20191;-79
2022/01/09 05:52:59;;;;;;;16.20;2.50;;;5.70;99.90;;;;;;5090795;28;20192;-77
2022/01/09 05:55:25;;;;;;;15.47;3.33;;;5.80;99.90;;;;;;5093746;28;20219;-79
2022/01/09 05:57:51;;;;;;;15.03;2.13;;;5.80;99.90;;;;;;5104287;28;20171;-60
2022/01/09 06:00:17;;;;;;;24.37;3.20;;;5.90;99.90;;;;;;5094849;28;20718;-75
2022/01/09 06:02:43;;;;;;;15.43;2.40;;;5.80;99.90;;;;;;5093757;28;20187;-73
2022/01/09 06:05:09;;;;;;;9.77;1.73;;;5.80;99.90;;;;;;5094683;28;20168;-73
2022/01/09 06:07:41;;;;;;;14.50;1.83;;;5.80;99.90;;;;;;5094728;28;20328;-74
2022/01/09 06:10:09;;;;;;;13.27;2.00;;;5.70;99.90;;;;;;5100099;28;20257;-74
2022/01/09 06:12:34;;;;;;;12.90;2.50;;;5.70;99.90;;;;;;5114849;28;20171;-74
2022/01/09 06:15:00;;;;;;;19.47;2.10;;;5.70;99.90;;;;;;5110711;28;20565;-73
2022/01/09 06:17:26;;;;;;;23.43;2.90;;;5.60;99.90;;;;;;5094503;28;20180;-75
2022/01/09 06:19:52;;;;;;;13.20;2.20;;;5.70;99.90;;;;;;5092889;28;20179;-74
2022/01/09 06:22:18;;;;;;;20.87;2.67;;;5.60;99.90;;;;;;5094239;28;20203;-75
2022/01/09 06:24:50;;;;;;;18.10;2.23;;;5.70;99.90;;;;;;5094354;28;20171;-75
2022/01/09 06:27:18;;;;;;;21.30;2.60;;;5.80;99.90;;;;;;5094197;28;20167;-75
2022/01/09 06:29:44;;;;;;;16.17;2.23;;;5.80;99.90;;;;;;5093824;28;20160;-75
2022/01/09 06:32:10;;;;;;;18.37;2.13;;;5.80;99.90;;;;;;5092817;28;20209;-74
2022/01/09 06:34:36;;;;;;;19.67;2.87;;;5.90;99.90;;;;;;5094201;28;20203;-78
2022/01/09 06:37:02;;;;;;;12.43;2.00;;;5.90;99.90;;;;;;5094012;28;20160;-75
2022/01/09 06:39:28;;;;;;;11.87;2.00;;;5.90;99.90;;;;;;5093824;28;20223;-75
2022/01/09 06:41:55;;;;;;;24.50;2.97;;;5.90;99.90;;;;;;5093791;28;20208;-75
2022/01/09 06:44:21;;;;;;;13.27;1.80;;;5.90;99.90;;;;;;5093786;28;20255;-75
2022/01/09 06:46:47;;;;;;;23.60;2.60;;;5.90;99.90;;;;;;5093651;28;20266;-76
2022/01/09 06:49:12;;;;;;;12.27;1.73;;;5.80;99.90;;;;;;5093802;28;20179;-76
2022/01/09 06:51:38;;;;;;;15.80;2.47;;;5.90;99.90;;;;;;5093786;28;20175;-76
2022/01/09 06:54:04;;;;;;;25.77;2.67;;;5.90;99.90;;;;;;5093615;28;20532;-75
2022/01/09 06:56:30;;;;;;;21.07;2.00;;;5.80;99.90;;;;;;5093754;28;20665;-74
2022/01/09 06:58:56;;;;;;;20.23;2.37;;;5.70;99.90;;;;;;5093552;28;20694;-74
2022/01/09 07:01:21;;;;;;;9.03;2.00;;;5.70;99.90;;;;;;5093574;28;20222;-74
2022/01/09 07:03:47;;;;;;;23.67;2.63;;;5.70;99.90;;;;;;5093463;28;20286;-74
2022/01/09 07:06:13;;;;;;;11.70;2.03;;;5.60;99.90;;;;;;5093362;28;20221;-74
2022/01/09 07:08:39;;;;;;;21.83;2.23;;;5.70;99.90;;;;;;5093358;28;20165;-75
2022/01/09 07:11:05;;;;;;;13.47;2.17;;;5.60;99.90;;;;;;5093200;28;20176;-73
2022/01/09 07:13:31;;;;;;;11.43;2.07;;;5.70;99.90;;;;;;5092121;28;20534;-74
2022/01/09 07:15:57;;;;;;;17.90;2.67;;;5.70;99.90;;;;;;5093082;28;20180;-77
2022/01/09 07:18:24;;;;;;;20.07;2.47;;;5.60;99.90;;;;;;5093103;28;20218;-76
2022/01/09 07:20:50;;;;;;;18.07;2.20;;;5.60;99.90;;;;;;5093075;28;20259;-76
2022/01/09 07:23:16;;;;;;;20.97;2.67;;;5.60;99.90;;;;;;5093063;28;20172;-76
2022/01/09 07:25:42;;;;;;;16.17;2.57;;;5.60;99.90;;;;;;5092950;28;20230;-76
2022/01/09 07:28:08;;;;;;;21.20;2.33;;;5.70;99.90;;;;;;5092993;28;20638;-75
2022/01/09 07:30:33;;;;;;;16.70;2.13;;;5.60;99.90;;;;;;5094236;28;20185;-77
2022/01/09 07:32:59;;;;;;;17.17;2.17;;;5.60;99.90;;;;;;5113409;28;20630;-79
2022/01/09 07:35:25;;;;;;;17.13;2.73;;;5.70;99.90;;;;;;5113378;28;20171;-80
2022/01/09 07:37:52;;;;;;;21.63;2.50;;;5.70;99.90;;;;;;5111354;28;20167;-80
2022/01/09 07:40:20;;;;;;;23.30;2.43;;;5.70;99.90;;;;;;5113262;28;20554;-77
2022/01/09 07:42:47;;;;;;;21.33;4.47;;;5.70;99.90;;;;;;5113268;28;20190;-78
2022/01/09 07:45:14;;;;;;;15.70;2.30;;;5.70;99.90;;;;;;5111068;28;20167;-78
2022/01/09 07:47:40;;;;;;;19.63;2.80;;;5.70;99.90;;;;;;5113210;27;20191;-79
2022/01/09 07:50:10;;;;;;;18.20;2.20;;;5.60;99.90;;;;;;5112931;28;20189;-73
2022/01/09 07:52:36;;;;;;;18.60;2.20;;;5.50;99.90;;;;;;5112841;28;20278;-69
2022/01/09 07:55:05;;;;;;;16.13;2.17;;;5.60;99.90;;;;;;5110842;27;20193;-66
2022/01/09 07:57:31;;;;;;;19.33;2.10;;;5.40;99.90;;;;;;5112757;28;20175;-62
2022/01/09 07:59:58;;;;;;;16.90;1.77;;;5.60;99.90;;;;;;5106418;28;20164;-62
2022/01/09 08:02:24;;;;;;;19.67;2.30;;;5.40;99.90;;;;;;5098839;28;20183;-75
2022/01/09 08:04:50;;;;;;;18.47;2.23;;;5.30;99.90;;;;;;5092307;28;20222;-74
2022/01/09 08:07:16;;;;;;;10.10;1.60;;;5.40;99.90;;;;;;5092141;28;20168;-76
2022/01/09 08:09:44;;;;;;;24.53;2.80;;;5.40;99.90;;;;;;5096003;28;20250;-76
2022/01/09 08:12:11;;;;;;;18.23;2.37;;;5.40;99.90;;;;;;5112257;28;20641;-75
2022/01/09 08:14:40;;;;;;;20.27;2.70;;;5.30;99.90;;;;;;5101913;28;20172;-73
2022/01/09 08:17:07;;;;;;;18.10;2.53;;;5.20;99.90;;;;;;5092241;28;20164;-73
2022/01/09 08:19:35;;;;;;;16.50;2.53;;;5.20;99.90;;;;;;5092241;28;20263;-73
2022/01/09 08:22:02;;;;;;;12.77;2.07;;;5.40;99.90;;;;;;5092320;28;20211;-73
2022/01/09 08:24:28;;;;;;;19.73;2.37;;;5.40;99.90;;;;;;5092750;28;20176;-73
2022/01/09 08:26:54;;;;;;;12.37;1.70;;;5.40;99.90;;;;;;5110578;28;20197;-74
2022/01/09 08:29:19;;;;;;;11.07;2.07;;;5.40;99.90;;;;;;5102650;28;20183;-72
2022/01/09 08:31:45;;;;;;;23.47;5.10;;;5.50;99.90;;;;;;5091721;28;20168;-74
2022/01/09 08:34:11;;;;;;;20.57;3.30;;;5.50;99.90;;;;;;5091774;28;20536;-65
2022/01/09 08:36:38;;;;;;;13.97;2.27;;;5.60;99.90;;;;;;5107335;28;20175;-73
2022/01/09 08:39:05;;;;;;;26.13;6.07;;;5.60;99.90;;;;;;5111813;28;20222;-75
2022/01/09 08:41:32;;;;;;;18.30;2.93;;;5.60;99.90;;;;;;5111726;28;20677;-74
2022/01/09 08:44:00;;;;;;;16.07;2.40;;;5.60;99.90;;;;;;5096620;28;20195;-76
2022/01/09 08:46:26;;;;;;;16.83;2.03;;;5.70;99.90;;;;;;5091592;28;20183;-76
2022/01/09 08:48:52;;;;;;;13.53;2.93;;;5.80;99.90;;;;;;5098154;28;20171;-75
2022/01/09 08:51:18;;;;;;;17.50;2.60;;;5.90;99.90;;;;;;5110726;28;20232;-74
2022/01/09 08:53:50;;;;;;;15.20;2.03;;;6.00;99.90;;;;;;5091523;28;20159;-74
2022/01/09 08:56:18;;;;;;;13.43;1.63;;;6.10;99.90;;;;;;5091345;28;20708;-74
2022/01/09 08:58:44;;;;;;;20.57;2.30;;;6.30;99.90;;;;;;5091281;28;20195;-75
2022/01/09 09:01:10;;;;;;;16.60;2.30;;;7.00;99.90;;;;;;5090899;28;20230;-76
2022/01/09 09:03:41;;;;;;;17.27;2.10;;;7.30;99.90;;;;;;5092286;28;20172;-76
2022/01/09 09:06:15;;;;;;;20.53;2.20;;;7.40;99.90;;;;;;5091383;28;20183;-75
2022/01/09 09:08:42;;;;;;;13.90;1.70;;;7.50;99.90;;;;;;5091012;28;20184;-77
2022/01/09 09:11:09;;;;;;;14.50;2.20;;;7.90;99.90;;;;;;5091283;28;20277;-77
2022/01/09 09:13:36;;;;;;;19.70;2.70;;;8.20;99.90;;;;;;5111400;28;20171;-72
2022/01/09 09:16:02;;;;;;;16.30;2.40;;;8.20;99.90;;;;;;5109191;28;20189;-71
2022/01/09 09:18:28;;;;;;;11.03;2.00;;;8.00;99.90;;;;;;5109190;28;20266;-70
2022/01/09 09:20:56;;;;;;;18.30;2.00;;;8.00;99.90;;;;;;5109335;28;20576;-70
2022/01/09 09:23:23;;;;;;;13.47;2.00;;;8.10;99.90;;;;;;5091896;28;20589;-70
2022/01/09 09:25:49;;;;;;;15.37;2.43;;;8.40;99.90;;;;;;5090859;28;20429;-71
2022/01/09 09:28:15;;;;;;;18.47;2.83;;;8.60;99.90;;;;;;5090840;28;20301;-82
2022/01/09 09:30:41;;;;;;;11.70;2.13;;;9.30;99.90;;;;;;5098831;28;20183;-59
2022/01/09 09:33:07;;;;;;;15.77;2.27;;;9.50;99.90;;;;;;5092270;28;20174;-59
2022/01/09 09:35:33;;;;;;;13.67;2.40;;;9.40;99.90;;;;;;5090948;28;20168;-59
2022/01/09 09:38:00;;;;;;;20.17;3.33;;;9.30;99.90;;;;;;5094481;28;20191;-58
2022/01/09 09:40:26;;;;;;;13.70;2.30;;;9.30;99.90;;;;;;5109782;28;20313;-57
2022/01/09 09:42:52;;;;;;;11.60;2.70;;;9.20;99.90;;;;;;5097544;28;20193;-57
2022/01/09 09:45:18;;;;;;;18.37;2.57;;;9.10;99.90;;;;;;5094706;28;20172;-59
2022/01/09 09:47:47;;;;;;;12.47;2.53;;;9.30;99.90;;;;;;5095564;28;20178;-58
2022/01/09 09:50:15;;;;;;;19.73;2.70;;;9.60;99.90;;;;;;5093298;28;20211;-59
2022/01/09 09:52:42;;;;;;;13.63;2.63;;;9.60;99.90;;;;;;5094671;28;20179;-59
2022/01/09 09:55:08;;;;;;;18.33;2.83;;;9.30;99.90;;;;;;5112370;28;20175;-60
2022/01/09 09:57:34;;;;;;;15.70;2.50;;;10.10;99.90;;;;;;5115055;28;20175;-59
2022/01/09 10:00:18;;;;;;;26.67;3.30;;;10.10;99.90;;;;;;5111238;28;20179;-59
2022/01/09 10:02:58;;;;;;;23.73;2.77;;;9.80;99.90;;;;;;5094524;28;20252;-59
2022/01/09 10:05:33;;;;;;;16.63;2.93;;;9.50;99.90;;;;;;5095048;28;20209;-59
2022/01/09 10:08:08;;;;;;;26.17;3.40;;;9.20;99.90;;;;;;5108246;28;20178;-59
2022/01/09 10:10:35;;;;;;;17.33;2.77;;;9.10;99.90;;;;;;5114790;28;20162;-60
2022/01/09 10:13:19;;;;;;;22.73;3.63;;;9.10;99.90;;;;;;5104103;28;20176;-59
2022/01/09 10:15:57;;;;;;;19.70;3.33;;;9.10;99.90;;;;;;5094336;28;20171;-59
2022/01/09 10:18:53;;;;;;;18.47;3.53;;;9.20;99.90;;;;;;5109893;28;20211;-59
2022/01/09 10:21:22;;;;;;;22.73;3.27;;;9.40;99.90;;;;;;5094093;28;20218;-64
2022/01/09 10:24:04;;;;;;;18.73;3.50;;;9.60;99.90;;;;;;5094005;28;20172;-69
2022/01/09 10:26:36;;;;;;;16.43;3.20;;;10.10;99.90;;;;;;5093885;28;20168;-66
2022/01/09 10:29:06;;;;;;;20.00;3.43;;;10.10;99.90;;;;;;5093863;28;20187;-67
2022/01/09 10:31:43;;;;;;;21.43;3.80;;;10.50;99.90;;;;;;5092741;28;20604;-69
2022/01/09 10:34:10;;;;;;;22.77;3.37;;;11.00;99.90;;;;;;5094237;28;20175;-65
2022/01/09 10:36:45;;;;;;;20.80;3.80;;;10.80;99.90;;;;;;5108264;28;20198;-70
2022/01/09 10:39:12;;;;;;;14.93;3.50;;;10.60;99.90;;;;;;5112218;28;20264;-71
2022/01/09 10:41:58;;;;;;;18.47;4.23;;;10.40;99.90;;;;;;5113983;28;20670;-69
2022/01/09 10:44:30;;;;;;;25.77;3.57;;;10.20;99.90;;;;;;5114081;28;20660;-70
2022/01/09 10:47:03;;;;;;;21.17;3.30;;;10.90;99.90;;;;;;5095262;28;20555;-70
2022/01/09 10:49:41;;;;;;;22.67;3.70;;;10.90;99.90;;;;;;5093639;28;20172;-70
2022/01/09 10:52:25;;;;;;;25.60;3.67;;;10.90;99.90;;;;;;5095090;28;20186;-70
2022/01/09 10:54:52;;;;;;;18.17;2.93;;;11.60;99.90;;;;;;5093970;28;20183;-70
2022/01/09 10:57:21;;;;;;;29.03;4.10;;;11.40;99.90;;;;;;5100085;28;20176;-69
2022/01/09 10:59:47;;;;;;;24.63;4.37;;;11.40;99.90;;;;;;5092414;28;20595;-69
2022/01/09 11:02:13;;;;;;;18.13;3.93;;;11.30;99.90;;;;;;5092017;28;20222;-69
2022/01/09 11:04:41;;;;;;;24.67;4.20;;;11.20;99.90;;;;;;5093262;28;20657;-68
2022/01/09 11:07:08;;;;;;;23.50;4.07;;;11.30;99.90;;;;;;5093024;28;20175;-70
2022/01/09 11:09:34;;;;;;;24.30;3.80;;;11.70;99.90;;;;;;5093121;28;20638;-69
2022/01/09 11:12:02;;;;;;;18.20;4.63;;;12.00;99.90;;;;;;5093277;28;20175;-69
2022/01/09 11:14:30;;;;;;;19.27;4.03;;;12.20;99.90;;;;;;5092842;28;20255;-69
2022/01/09 11:16:58;;;;;;;22.43;3.90;;;13.00;99.90;;;;;;5091383;28;20302;-69
2022/01/09 11:19:25;;;;;;;24.90;4.00;;;13.20;99.90;;;;;;5092690;28;20254;-69
2022/01/09 11:21:52;;;;;;;26.93;4.63;;;14.60;99.90;;;;;;5092997;28;20220;-69
2022/01/09 11:24:56;;;;;;;26.67;4.13;;;15.40;99.90;;;;;;5093027;28;20259;-69
2022/01/09 11:27:27;;;;;;;24.27;4.50;;;15.40;99.90;;;;;;5092877;28;20179;-68
2022/01/09 11:29:58;;;;;;;24.38;4.07;;;15.50;99.90;;;;;;5093260;28;20184;-70
2022/01/09 11:32:46;;;;;;;20.80;4.78;;;14.90;99.90;;;;;;5092858;28;20207;-68
2022/01/09 11:35:46;;;;;;;16.65;4.10;;;15.00;99.90;;;;;;5095853;28;20244;-68
2022/01/09 11:38:45;;;;;;;15.00;3.20;;;14.70;99.90;;;;;;5111553;28;20183;-67
2022/01/09 11:41:26;;;;;;;17.23;3.20;;;15.50;99.90;;;;;;5102662;27;20211;-67
2022/01/09 11:44:03;;;;;;;21.92;3.70;;;17.30;99.90;;;;;;5092483;28;20225;-67
2022/01/09 11:46:31;;;;;;;20.33;4.07;;;18.20;99.90;;;;;;5092663;28;20172;-66
2022/01/09 11:48:58;;;;;;;18.30;3.25;;;17.50;99.90;;;;;;5092498;28;20676;-67
2022/01/09 11:51:28;;;;;;;19.63;3.72;;;17.60;99.90;;;;;;5092665;28;20204;-67
2022/01/09 11:54:11;;;;;;;16.63;3.95;;;18.80;99.90;;;;;;5106806;28;20729;-67
2022/01/09 11:56:56;;;;;;;21.48;3.65;;;19.40;99.90;;;;;;5112488;28;20713;-67
2022/01/09 11:59:38;;;;;;;16.55;4.60;;;19.90;99.90;;;;;;5111894;28;20207;-67
2022/01/09 12:02:06;;;;;;;17.65;4.30;;;20.50;99.90;;;;;;5112378;28;20603;-67
2022/01/09 12:04:35;;;;;;;16.60;4.40;;;20.90;99.90;;;;;;5112492;28;20164;-67
2022/01/09 12:07:07;;;;;;;17.27;4.07;;;20.40;99.90;;;;;;5110908;28;20171;-67
2022/01/09 12:09:48;;;;;;;15.00;3.88;;;19.70;99.90;;;;;;5112374;28;20171;-66
2022/01/09 12:12:20;;;;;;;26.27;4.20;;;18.90;99.90;;;;;;5112388;27;20232;-67
2022/01/09 12:14:53;;;;;;;21.80;3.75;;;19.20;99.90;;;;;;5112317;28;20243;-68
2022/01/09 12:17:25;;;;;;;17.92;3.75;;;19.50;99.90;;;;;;5112268;28;20206;-67
2022/01/09 12:20:15;;;;;;;16.40;4.05;;;19.10;99.90;;;;;;5112539;28;20201;-68
2022/01/09 12:22:42;;;;;;;21.98;3.13;;;19.90;99.90;;;;;;5111990;28;20585;-68
2022/01/09 12:25:21;;;;;;;12.65;3.25;;;18.10;99.90;;;;;;5112359;28;20218;-68
2022/01/09 12:28:08;;;;;;;24.23;3.55;;;17.90;99.90;;;;;;5110750;28;20174;-68
2022/01/09 12:30:52;;;;;;;15.27;3.20;;;17.20;99.90;;;;;;5112011;28;20689;-68
2022/01/09 12:33:34;;;;;;;15.80;3.20;;;16.00;99.90;;;;;;5112011;28;20175;-69
2022/01/09 12:36:00;;;;;;;21.25;3.63;;;16.00;99.90;;;;;;5112028;28;20538;-68
2022/01/09 12:38:28;;;;;;;20.90;3.45;;;16.20;99.90;;;;;;5111624;28;20222;-69
2022/01/09 12:41:01;;;;;;;23.67;3.85;;;15.80;99.90;;;;;;5111867;28;20754;-69
2022/01/09 12:43:28;;;;;;;15.20;3.33;;;14.80;99.90;;;;;;5111867;28;20250;-69
2022/01/09 12:45:54;;;;;;;16.25;3.10;;;14.70;99.90;;;;;;5111924;28;20186;-68
2022/01/09 12:48:27;;;;;;;15.65;3.17;;;15.90;99.90;;;;;;5111728;28;20171;-69
2022/01/09 12:50:55;;;;;;;15.73;3.17;;;16.20;99.90;;;;;;5111698;28;20167;-69